sensor_id;sensor_type;location;lat;lon;timestamp;temperature;humidity
25328;DHT22;13279;51.300;12.394;2023-11-18T00:01:41;5.50;99.90
25328;DHT22;13279;51.300;12.394;2023-11-18T00:04:10;5.50;99.90
25328;DHT22;13279;51.300;12.394;2023-11-18T00:06:42;5.50;99.90
25328;DHT22;13279;51.300;12.394;2023-11-18T00:09:10;5.40;99.90
25328;DHT22;13279;51.300;12.394;2023-11-18T00:11:38;5.40;99.90
25328;DHT22;13279;51.300;12.394;2023-11-18T00:14:07;5.40;99.90
25328;DHT22;13279;51.300;12.394;2023-11-18T00:16:36;5.40;99.90
25328;DHT22;13279;51.300;12.394;2023-11-18T00:19:04;5.40;99.90
25328;DHT22;13279;51.300;12.394;2023-11-18T00:21:34;5.40;99.90
25328;DHT22;13279;51.300;12.394;2023-11-18T00:24:02;5.40;99.90
25328;DHT22;13279;51.300;12.394;2023-11-18T00:26:31;5.30;99.90
25328;DHT22;13279;51.300;12.394;2023-11-18T00:28:59;5.30;99.90
25328;DHT22;13279;51.300;12.394;2023-11-18T00:31:27;5.30;99.90
25328;DHT22;13279;51.300;12.394;2023-11-18T00:33:56;5.30;99.90
25328;DHT22;13279;51.300;12.394;2023-11-18T00:36:23;5.30;99.90
25328;DHT22;13279;51.300;12.394;2023-11-18T00:38:50;5.30;99.90
25328;DHT22;13279;51.300;12.394;2023-11-18T00:41:17;5.30;99.90
25328;DHT22;13279;51.300;12.394;2023-11-18T00:43:49;5.30;99.90
25328;DHT22;13279;51.300;12.394;2023-11-18T00:46:16;5.20;99.90
25328;DHT22;13279;51.300;12.394;2023-11-18T00:48:45;5.20;99.90
25328;DHT22;13279;51.300;12.394;2023-11-18T00:51:13;5.20;99.90
25328;DHT22;13279;51.300;12.394;2023-11-18T00:53:40;5.10;99.90
25328;DHT22;13279;51.300;12.394;2023-11-18T00:56:14;5.10;99.90
25328;DHT22;13279;51.300;12.394;2023-11-18T00:58:44;5.10;99.90
25328;DHT22;13279;51.300;12.394;2023-11-18T01:01:11;5.00;99.90
25328;DHT22;13279;51.300;12.394;2023-11-18T01:03:39;5.00;99.90
25328;DHT22;13279;51.300;12.394;2023-11-18T01:06:08;4.90;99.90
25328;DHT22;13279;51.300;12.394;2023-11-18T01:08:35;4.90;99.90
25328;DHT22;13279;51.300;12.394;2023-11-18T01:11:03;4.80;99.90
25328;DHT22;13279;51.300;12.394;2023-11-18T01:13:31;4.80;99.90
25328;DHT22;13279;51.300;12.394;2023-11-18T01:15:59;4.70;99.90
25328;DHT22;13279;51.300;12.394;2023-11-18T01:18:26;4.70;99.90
25328;DHT22;13279;51.300;12.394;2023-11-18T01:20:54;4.60;99.90
25328;DHT22;13279;51.300;12.394;2023-11-18T01:23:23;4.70;99.90
25328;DHT22;13279;51.300;12.394;2023-11-18T01:25:50;4.50;99.90
25328;DHT22;13279;51.300;12.394;2023-11-18T01:28:18;4.40;99.90
25328;DHT22;13279;51.300;12.394;2023-11-18T01:30:45;4.40;99.90
25328;DHT22;13279;51.300;12.394;2023-11-18T01:33:13;4.30;99.90
25328;DHT22;13279;51.300;12.394;2023-11-18T01:35:40;4.30;99.90
25328;DHT22;13279;51.300;12.394;2023-11-18T01:38:09;4.20;99.90
25328;DHT22;13279;51.300;12.394;2023-11-18T01:40:39;4.20;99.90
25328;DHT22;13279;51.300;12.394;2023-11-18T01:43:09;4.10;99.90
25328;DHT22;13279;51.300;12.394;2023-11-18T01:45:40;4.10;99.90
25328;DHT22;13279;51.300;12.394;2023-11-18T01:48:08;4.10;99.90
25328;DHT22;13279;51.300;12.394;2023-11-18T01:50:38;4.00;99.90
25328;DHT22;13279;51.300;12.394;2023-11-18T01:53:06;4.00;99.90
25328;DHT22;13279;51.300;12.394;2023-11-18T01:55:34;3.90;99.90
25328;DHT22;13279;51.300;12.394;2023-11-18T01:58:02;3.80;99.90
25328;DHT22;13279;51.300;12.394;2023-11-18T02:00:34;3.80;99.90
25328;DHT22;13279;51.300;12.394;2023-11-18T02:03:04;3.80;99.90
25328;DHT22;13279;51.300;12.394;2023-11-18T02:05:32;3.70;99.90
25328;DHT22;13279;51.300;12.394;2023-11-18T02:08:01;3.70;99.90
25328;DHT22;13279;51.300;12.394;2023-11-18T02:10:30;3.70;99.90
25328;DHT22;13279;51.300;12.394;2023-11-18T02:13:06;3.60;99.90
25328;DHT22;13279;51.300;12.394;2023-11-18T02:15:39;3.60;99.90
25328;DHT22;13279;51.300;12.394;2023-11-18T02:18:08;3.60;99.90
25328;DHT22;13279;51.300;12.394;2023-11-18T02:20:38;3.50;99.90
25328;DHT22;13279;51.300;12.394;2023-11-18T02:23:06;3.50;99.90
25328;DHT22;13279;51.300;12.394;2023-11-18T02:25:43;3.50;99.90
25328;DHT22;13279;51.300;12.394;2023-11-18T02:28:12;3.50;99.90
25328;DHT22;13279;51.300;12.394;2023-11-18T02:30:40;3.40;99.90
25328;DHT22;13279;51.300;12.394;2023-11-18T02:33:14;3.40;99.90
25328;DHT22;13279;51.300;12.394;2023-11-18T02:35:48;3.40;99.90
25328;DHT22;13279;51.300;12.394;2023-11-18T02:38:22;3.40;99.90
25328;DHT22;13279;51.300;12.394;2023-11-18T02:40:58;3.30;99.90
25328;DHT22;13279;51.300;12.394;2023-11-18T02:43:27;3.30;99.90
25328;DHT22;13279;51.300;12.394;2023-11-18T02:45:57;3.30;99.90
25328;DHT22;13279;51.300;12.394;2023-11-18T02:48:26;3.30;99.90
25328;DHT22;13279;51.300;12.394;2023-11-18T02:50:54;3.30;99.90
25328;DHT22;13279;51.300;12.394;2023-11-18T02:53:22;3.30;99.90
25328;DHT22;13279;51.300;12.394;2023-11-18T02:55:50;3.30;99.90
25328;DHT22;13279;51.300;12.394;2023-11-18T02:58:20;3.40;99.90
25328;DHT22;13279;51.300;12.394;2023-11-18T03:00:47;3.40;99.90
25328;DHT22;13279;51.300;12.394;2023-11-18T03:03:16;3.40;99.90
25328;DHT22;13279;51.300;12.394;2023-11-18T03:05:43;3.30;99.90
25328;DHT22;13279;51.300;12.394;2023-11-18T03:08:11;3.30;99.90
25328;DHT22;13279;51.300;12.394;2023-11-18T03:10:39;3.20;99.90
25328;DHT22;13279;51.300;12.394;2023-11-18T03:13:10;3.20;99.90
25328;DHT22;13279;51.300;12.394;2023-11-18T03:15:39;3.10;99.90
25328;DHT22;13279;51.300;12.394;2023-11-18T03:18:07;3.10;99.90
25328;DHT22;13279;51.300;12.394;2023-11-18T03:20:34;3.10;99.90
25328;DHT22;13279;51.300;12.394;2023-11-18T03:23:03;3.10;99.90
25328;DHT22;13279;51.300;12.394;2023-11-18T03:25:33;3.10;99.90
25328;DHT22;13279;51.300;12.394;2023-11-18T03:28:01;3.10;99.90
25328;DHT22;13279;51.300;12.394;2023-11-18T03:30:31;3.10;99.90
25328;DHT22;13279;51.300;12.394;2023-11-18T03:32:59;3.20;99.90
25328;DHT22;13279;51.300;12.394;2023-11-18T03:35:27;3.20;99.90
25328;DHT22;13279;51.300;12.394;2023-11-18T03:37:55;3.20;99.90
25328;DHT22;13279;51.300;12.394;2023-11-18T03:40:23;3.20;99.90
25328;DHT22;13279;51.300;12.394;2023-11-18T03:42:50;3.30;99.90
25328;DHT22;13279;51.300;12.394;2023-11-18T03:45:19;3.30;99.90
25328;DHT22;13279;51.300;12.394;2023-11-18T03:47:46;3.40;99.90
25328;DHT22;13279;51.300;12.394;2023-11-18T03:50:18;3.40;99.90
25328;DHT22;13279;51.300;12.394;2023-11-18T03:52:46;3.50;99.90
25328;DHT22;13279;51.300;12.394;2023-11-18T03:55:14;3.50;99.90
25328;DHT22;13279;51.300;12.394;2023-11-18T03:57:41;3.60;99.90
25328;DHT22;13279;51.300;12.394;2023-11-18T04:00:09;3.60;99.90
25328;DHT22;13279;51.300;12.394;2023-11-18T04:02:39;3.60;99.90
25328;DHT22;13279;51.300;12.394;2023-11-18T04:05:07;3.60;99.90
25328;DHT22;13279;51.300;12.394;2023-11-18T04:07:37;3.60;99.90
25328;DHT22;13279;51.300;12.394;2023-11-18T04:10:08;3.60;99.90
25328;DHT22;13279;51.300;12.394;2023-11-18T04:12:36;3.60;99.90
25328;DHT22;13279;51.300;12.394;2023-11-18T04:15:04;3.60;99.90
25328;DHT22;13279;51.300;12.394;2023-11-18T04:17:32;3.60;99.90
25328;DHT22;13279;51.300;12.394;2023-11-18T04:20:00;3.60;99.90
25328;DHT22;13279;51.300;12.394;2023-11-18T04:22:31;3.70;99.90
25328;DHT22;13279;51.300;12.394;2023-11-18T04:24:59;3.80;99.90
25328;DHT22;13279;51.300;12.394;2023-11-18T04:27:27;3.80;99.90
25328;DHT22;13279;51.300;12.394;2023-11-18T04:29:55;3.80;99.90
25328;DHT22;13279;51.300;12.394;2023-11-18T04:32:23;3.80;99.90
25328;DHT22;13279;51.300;12.394;2023-11-18T04:34:50;3.90;99.90
25328;DHT22;13279;51.300;12.394;2023-11-18T04:37:17;3.90;99.90
25328;DHT22;13279;51.300;12.394;2023-11-18T04:39:45;4.00;99.90
25328;DHT22;13279;51.300;12.394;2023-11-18T04:42:14;3.90;99.90
25328;DHT22;13279;51.300;12.394;2023-11-18T04:44:42;4.00;99.90
25328;DHT22;13279;51.300;12.394;2023-11-18T04:47:09;4.00;99.90
25328;DHT22;13279;51.300;12.394;2023-11-18T04:49:37;4.10;99.90
25328;DHT22;13279;51.300;12.394;2023-11-18T04:52:05;4.10;99.90
25328;DHT22;13279;51.300;12.394;2023-11-18T04:54:35;4.10;99.90
25328;DHT22;13279;51.300;12.394;2023-11-18T04:57:03;4.20;99.90
25328;DHT22;13279;51.300;12.394;2023-11-18T04:59:32;4.20;99.90
25328;DHT22;13279;51.300;12.394;2023-11-18T05:02:00;4.20;99.90
25328;DHT22;13279;51.300;12.394;2023-11-18T05:04:28;4.30;99.90
25328;DHT22;13279;51.300;12.394;2023-11-18T05:06:56;4.30;99.90
25328;DHT22;13279;51.300;12.394;2023-11-18T05:09:23;4.30;99.90
25328;DHT22;13279;51.300;12.394;2023-11-18T05:11:51;4.40;99.90
25328;DHT22;13279;51.300;12.394;2023-11-18T05:14:19;4.40;99.90
25328;DHT22;13279;51.300;12.394;2023-11-18T05:16:48;4.40;99.90
25328;DHT22;13279;51.300;12.394;2023-11-18T05:19:15;4.40;99.90
25328;DHT22;13279;51.300;12.394;2023-11-18T05:21:43;4.40;99.90
25328;DHT22;13279;51.300;12.394;2023-11-18T05:24:15;4.40;99.90
25328;DHT22;13279;51.300;12.394;2023-11-18T05:26:43;4.40;99.90
25328;DHT22;13279;51.300;12.394;2023-11-18T05:29:10;4.40;99.90
25328;DHT22;13279;51.300;12.394;2023-11-18T05:31:42;4.30;99.90
25328;DHT22;13279;51.300;12.394;2023-11-18T05:34:12;4.30;99.90
25328;DHT22;13279;51.300;12.394;2023-11-18T05:36:39;4.30;99.90
25328;DHT22;13279;51.300;12.394;2023-11-18T05:39:07;4.30;99.90
25328;DHT22;13279;51.300;12.394;2023-11-18T05:41:36;4.30;99.90
25328;DHT22;13279;51.300;12.394;2023-11-18T05:44:06;4.40;99.90
25328;DHT22;13279;51.300;12.394;2023-11-18T05:46:35;4.30;99.90
25328;DHT22;13279;51.300;12.394;2023-11-18T05:49:03;4.30;99.90
25328;DHT22;13279;51.300;12.394;2023-11-18T05:51:35;4.40;99.90
25328;DHT22;13279;51.300;12.394;2023-11-18T05:54:02;4.40;99.90
25328;DHT22;13279;51.300;12.394;2023-11-18T05:56:30;4.40;99.90
25328;DHT22;13279;51.300;12.394;2023-11-18T05:58:57;4.50;99.90
25328;DHT22;13279;51.300;12.394;2023-11-18T06:01:25;4.40;99.90
25328;DHT22;13279;51.300;12.394;2023-11-18T06:03:53;4.40;99.90
25328;DHT22;13279;51.300;12.394;2023-11-18T06:06:20;4.40;99.90
25328;DHT22;13279;51.300;12.394;2023-11-18T06:08:49;4.40;99.90
25328;DHT22;13279;51.300;12.394;2023-11-18T06:11:17;4.40;99.90
25328;DHT22;13279;51.300;12.394;2023-11-18T06:13:46;4.40;99.90
25328;DHT22;13279;51.300;12.394;2023-11-18T06:16:14;4.50;99.90
25328;DHT22;13279;51.300;12.394;2023-11-18T06:18:42;4.50;99.90
25328;DHT22;13279;51.300;12.394;2023-11-18T06:21:12;4.60;99.90
25328;DHT22;13279;51.300;12.394;2023-11-18T06:23:40;4.50;99.90
25328;DHT22;13279;51.300;12.394;2023-11-18T06:26:09;4.50;99.90
25328;DHT22;13279;51.300;12.394;2023-11-18T06:28:38;4.50;99.90
25328;DHT22;13279;51.300;12.394;2023-11-18T06:31:06;4.50;99.90
25328;DHT22;13279;51.300;12.394;2023-11-18T06:33:38;4.60;99.90
25328;DHT22;13279;51.300;12.394;2023-11-18T06:36:09;4.50;99.90
25328;DHT22;13279;51.300;12.394;2023-11-18T06:38:37;4.50;99.90
25328;DHT22;13279;51.300;12.394;2023-11-18T06:41:08;4.50;99.90
25328;DHT22;13279;51.300;12.394;2023-11-18T06:43:37;4.50;99.90
25328;DHT22;13279;51.300;12.394;2023-11-18T06:46:18;4.60;99.90
25328;DHT22;13279;51.300;12.394;2023-11-18T06:48:48;4.60;99.90
25328;DHT22;13279;51.300;12.394;2023-11-18T06:51:16;4.60;99.90
25328;DHT22;13279;51.300;12.394;2023-11-18T06:53:43;4.60;99.90
25328;DHT22;13279;51.300;12.394;2023-11-18T06:56:12;4.60;99.90
25328;DHT22;13279;51.300;12.394;2023-11-18T06:58:40;4.60;99.90
25328;DHT22;13279;51.300;12.394;2023-11-18T07:01:08;4.60;99.90
25328;DHT22;13279;51.300;12.394;2023-11-18T07:03:36;4.60;99.90
25328;DHT22;13279;51.300;12.394;2023-11-18T07:06:04;4.60;99.90
25328;DHT22;13279;51.300;12.394;2023-11-18T07:08:32;4.60;99.90
25328;DHT22;13279;51.300;12.394;2023-11-18T07:11:00;4.60;99.90
25328;DHT22;13279;51.300;12.394;2023-11-18T07:13:29;4.70;99.90
25328;DHT22;13279;51.300;12.394;2023-11-18T07:15:57;4.70;99.90
25328;DHT22;13279;51.300;12.394;2023-11-18T07:18:24;4.70;99.90
25328;DHT22;13279;51.300;12.394;2023-11-18T07:20:52;4.70;99.90
25328;DHT22;13279;51.300;12.394;2023-11-18T07:23:20;4.70;99.90
25328;DHT22;13279;51.300;12.394;2023-11-18T07:25:47;4.70;99.90
25328;DHT22;13279;51.300;12.394;2023-11-18T07:28:15;4.70;99.90
25328;DHT22;13279;51.300;12.394;2023-11-18T07:30:44;4.70;99.90
25328;DHT22;13279;51.300;12.394;2023-11-18T07:33:13;4.70;99.90
25328;DHT22;13279;51.300;12.394;2023-11-18T07:35:41;4.60;99.90
25328;DHT22;13279;51.300;12.394;2023-11-18T07:38:09;4.70;99.90
25328;DHT22;13279;51.300;12.394;2023-11-18T07:40:37;4.70;99.90
25328;DHT22;13279;51.300;12.394;2023-11-18T07:43:08;4.70;99.90
25328;DHT22;13279;51.300;12.394;2023-11-18T07:45:36;4.80;99.90
25328;DHT22;13279;51.300;12.394;2023-11-18T07:48:07;4.80;99.90
25328;DHT22;13279;51.300;12.394;2023-11-18T07:50:35;4.80;99.90
25328;DHT22;13279;51.300;12.394;2023-11-18T07:53:03;4.90;99.90
25328;DHT22;13279;51.300;12.394;2023-11-18T07:55:33;4.90;99.90
25328;DHT22;13279;51.300;12.394;2023-11-18T07:58:00;5.00;99.90
25328;DHT22;13279;51.300;12.394;2023-11-18T08:00:29;5.10;99.90
25328;DHT22;13279;51.300;12.394;2023-11-18T08:02:57;5.10;99.90
25328;DHT22;13279;51.300;12.394;2023-11-18T08:05:27;5.10;99.90
25328;DHT22;13279;51.300;12.394;2023-11-18T08:07:57;5.10;99.90
25328;DHT22;13279;51.300;12.394;2023-11-18T08:10:25;5.10;99.90
25328;DHT22;13279;51.300;12.394;2023-11-18T08:12:52;5.20;99.90
25328;DHT22;13279;51.300;12.394;2023-11-18T08:15:20;5.20;99.90
25328;DHT22;13279;51.300;12.394;2023-11-18T08:17:48;5.20;99.90
25328;DHT22;13279;51.300;12.394;2023-11-18T08:20:15;5.20;99.90
25328;DHT22;13279;51.300;12.394;2023-11-18T08:22:45;5.30;99.90
25328;DHT22;13279;51.300;12.394;2023-11-18T08:25:12;5.40;99.90
25328;DHT22;13279;51.300;12.394;2023-11-18T08:27:41;5.60;99.90
25328;DHT22;13279;51.300;12.394;2023-11-18T08:30:09;5.80;99.90
25328;DHT22;13279;51.300;12.394;2023-11-18T08:32:39;6.00;99.90
25328;DHT22;13279;51.300;12.394;2023-11-18T08:35:10;6.30;99.90
25328;DHT22;13279;51.300;12.394;2023-11-18T08:37:40;6.60;99.90
25328;DHT22;13279;51.300;12.394;2023-11-18T08:40:11;6.90;99.90
25328;DHT22;13279;51.300;12.394;2023-11-18T08:42:42;7.00;99.90
25328;DHT22;13279;51.300;12.394;2023-11-18T08:45:15;7.20;99.90
25328;DHT22;13279;51.300;12.394;2023-11-18T08:47:45;7.40;99.90
25328;DHT22;13279;51.300;12.394;2023-11-18T08:50:14;7.50;99.90
25328;DHT22;13279;51.300;12.394;2023-11-18T08:52:43;7.30;99.90
25328;DHT22;13279;51.300;12.394;2023-11-18T08:55:15;7.20;99.90
25328;DHT22;13279;51.300;12.394;2023-11-18T08:57:47;7.20;99.90
25328;DHT22;13279;51.300;12.394;2023-11-18T09:00:26;7.10;99.90
25328;DHT22;13279;51.300;12.394;2023-11-18T09:03:12;7.00;99.90
25328;DHT22;13279;51.300;12.394;2023-11-18T09:05:45;6.80;99.90
25328;DHT22;13279;51.300;12.394;2023-11-18T09:08:24;6.50;99.90
25328;DHT22;13279;51.300;12.394;2023-11-18T09:10:54;6.20;99.90
25328;DHT22;13279;51.300;12.394;2023-11-18T09:13:22;6.40;99.90
25328;DHT22;13279;51.300;12.394;2023-11-18T09:15:51;6.40;99.90
25328;DHT22;13279;51.300;12.394;2023-11-18T09:18:18;6.50;99.90
25328;DHT22;13279;51.300;12.394;2023-11-18T09:20:47;6.50;99.90
25328;DHT22;13279;51.300;12.394;2023-11-18T09:23:15;6.30;99.90
25328;DHT22;13279;51.300;12.394;2023-11-18T09:25:42;6.30;99.90
25328;DHT22;13279;51.300;12.394;2023-11-18T09:28:14;6.20;99.90
25328;DHT22;13279;51.300;12.394;2023-11-18T09:30:42;6.10;99.90
25328;DHT22;13279;51.300;12.394;2023-11-18T09:33:17;6.10;99.90
25328;DHT22;13279;51.300;12.394;2023-11-18T09:35:52;6.20;99.90
25328;DHT22;13279;51.300;12.394;2023-11-18T09:38:25;6.30;99.90
25328;DHT22;13279;51.300;12.394;2023-11-18T09:40:56;6.30;99.90
25328;DHT22;13279;51.300;12.394;2023-11-18T09:43:29;6.50;99.90
25328;DHT22;13279;51.300;12.394;2023-11-18T09:46:04;6.60;99.90
25328;DHT22;13279;51.300;12.394;2023-11-18T09:48:41;6.60;99.90
25328;DHT22;13279;51.300;12.394;2023-11-18T09:51:18;6.80;99.90
25328;DHT22;13279;51.300;12.394;2023-11-18T09:53:50;6.80;99.90
25328;DHT22;13279;51.300;12.394;2023-11-18T09:56:23;6.70;99.90
25328;DHT22;13279;51.300;12.394;2023-11-18T09:59:09;6.70;99.90
25328;DHT22;13279;51.300;12.394;2023-11-18T10:01:42;6.80;99.90
25328;DHT22;13279;51.300;12.394;2023-11-18T10:04:11;6.90;99.90
25328;DHT22;13279;51.300;12.394;2023-11-18T10:06:39;6.90;99.90
25328;DHT22;13279;51.300;12.394;2023-11-18T10:09:11;6.90;99.90
25328;DHT22;13279;51.300;12.394;2023-11-18T10:11:51;6.80;99.90
25328;DHT22;13279;51.300;12.394;2023-11-18T10:14:25;6.90;99.90
25328;DHT22;13279;51.300;12.394;2023-11-18T10:16:52;7.00;48.40
25328;DHT22;13279;51.300;12.394;2023-11-18T10:19:20;7.10;1.00
25328;DHT22;13279;51.300;12.394;2023-11-18T10:21:48;7.30;1.00
25328;DHT22;13279;51.300;12.394;2023-11-18T10:24:16;7.50;1.00
25328;DHT22;13279;51.300;12.394;2023-11-18T10:26:53;7.70;1.00
25328;DHT22;13279;51.300;12.394;2023-11-18T10:29:24;7.70;1.00
25328;DHT22;13279;51.300;12.394;2023-11-18T10:32:05;7.60;1.00
25328;DHT22;13279;51.300;12.394;2023-11-18T10:34:42;7.50;1.00
25328;DHT22;13279;51.300;12.394;2023-11-18T10:37:10;7.50;1.00
25328;DHT22;13279;51.300;12.394;2023-11-18T10:39:37;7.60;1.00
25328;DHT22;13279;51.300;12.394;2023-11-18T10:42:05;7.60;1.00
25328;DHT22;13279;51.300;12.394;2023-11-18T10:44:34;7.70;1.00
25328;DHT22;13279;51.300;12.394;2023-11-18T10:47:02;7.60;1.00
25328;DHT22;13279;51.300;12.394;2023-11-18T10:49:31;7.60;1.00
25328;DHT22;13279;51.300;12.394;2023-11-18T10:52:03;7.70;1.00
25328;DHT22;13279;51.300;12.394;2023-11-18T10:54:34;7.40;1.00
25328;DHT22;13279;51.300;12.394;2023-11-18T10:57:03;7.30;1.00
25328;DHT22;13279;51.300;12.394;2023-11-18T10:59:35;7.10;1.00
25328;DHT22;13279;51.300;12.394;2023-11-18T11:02:17;7.10;1.00
25328;DHT22;13279;51.300;12.394;2023-11-18T11:04:46;7.00;1.00
25328;DHT22;13279;51.300;12.394;2023-11-18T11:07:15;7.10;1.00
25328;DHT22;13279;51.300;12.394;2023-11-18T11:09:48;7.10;1.00
25328;DHT22;13279;51.300;12.394;2023-11-18T11:12:24;7.00;1.00
25328;DHT22;13279;51.300;12.394;2023-11-18T11:15:04;7.10;1.00
25328;DHT22;13279;51.300;12.394;2023-11-18T11:18:08;7.30;1.00
25328;DHT22;13279;51.300;12.394;2023-11-18T11:20:45;7.50;1.00
25328;DHT22;13279;51.300;12.394;2023-11-18T11:23:20;7.70;1.00
25328;DHT22;13279;51.300;12.394;2023-11-18T11:25:59;7.70;1.00
25328;DHT22;13279;51.300;12.394;2023-11-18T11:28:40;7.70;1.00
25328;DHT22;13279;51.300;12.394;2023-11-18T11:31:20;7.90;1.00
25328;DHT22;13279;51.300;12.394;2023-11-18T11:33:54;8.20;1.00
25328;DHT22;13279;51.300;12.394;2023-11-18T11:36:29;8.30;1.00
25328;DHT22;13279;51.300;12.394;2023-11-18T11:38:57;8.40;1.00
25328;DHT22;13279;51.300;12.394;2023-11-18T11:41:27;8.40;1.00
25328;DHT22;13279;51.300;12.394;2023-11-18T11:43:56;8.50;1.00
25328;DHT22;13279;51.300;12.394;2023-11-18T11:46:25;8.40;1.00
25328;DHT22;13279;51.300;12.394;2023-11-18T11:49:00;8.50;1.00
25328;DHT22;13279;51.300;12.394;2023-11-18T11:51:39;8.60;1.00
25328;DHT22;13279;51.300;12.394;2023-11-18T11:54:12;8.70;1.00
25328;DHT22;13279;51.300;12.394;2023-11-18T11:56:43;8.70;1.00
25328;DHT22;13279;51.300;12.394;2023-11-18T11:59:15;8.80;1.00
25328;DHT22;13279;51.300;12.394;2023-11-18T12:01:47;8.80;1.00
25328;DHT22;13279;51.300;12.394;2023-11-18T12:04:19;8.70;1.00
25328;DHT22;13279;51.300;12.394;2023-11-18T12:06:56;8.70;1.00
25328;DHT22;13279;51.300;12.394;2023-11-18T12:09:30;8.70;1.00
25328;DHT22;13279;51.300;12.394;2023-11-18T12:12:01;8.50;1.00
25328;DHT22;13279;51.300;12.394;2023-11-18T12:14:31;8.30;1.00
25328;DHT22;13279;51.300;12.394;2023-11-18T12:17:10;8.20;1.00
25328;DHT22;13279;51.300;12.394;2023-11-18T12:19:48;8.20;1.00
25328;DHT22;13279;51.300;12.394;2023-11-18T12:22:17;8.10;1.00
25328;DHT22;13279;51.300;12.394;2023-11-18T12:24:47;8.10;1.00
25328;DHT22;13279;51.300;12.394;2023-11-18T12:27:41;8.10;1.00
25328;DHT22;13279;51.300;12.394;2023-11-18T12:30:39;8.30;1.00
25328;DHT22;13279;51.300;12.394;2023-11-18T12:33:20;8.30;1.00
25328;DHT22;13279;51.300;12.394;2023-11-18T12:39:19;8.60;1.00
25328;DHT22;13279;51.300;12.394;2023-11-18T12:42:01;8.70;1.00
25328;DHT22;13279;51.300;12.394;2023-11-18T12:44:37;8.90;99.90
25328;DHT22;13279;51.300;12.394;2023-11-18T12:47:08;9.00;99.90
25328;DHT22;13279;51.300;12.394;2023-11-18T12:49:46;9.20;99.90
25328;DHT22;13279;51.300;12.394;2023-11-18T12:52:21;9.30;99.90
25328;DHT22;13279;51.300;12.394;2023-11-18T12:54:50;9.50;1.00
25328;DHT22;13279;51.300;12.394;2023-11-18T12:57:20;9.50;1.00
25328;DHT22;13279;51.300;12.394;2023-11-18T12:59:49;9.60;1.00
25328;DHT22;13279;51.300;12.394;2023-11-18T13:02:17;9.70;3.70
25328;DHT22;13279;51.300;12.394;2023-11-18T13:04:50;9.70;1.00
25328;DHT22;13279;51.300;12.394;2023-11-18T13:07:20;9.70;50.50
25328;DHT22;13279;51.300;12.394;2023-11-18T13:09:48;9.60;90.10
25328;DHT22;13279;51.300;12.394;2023-11-18T13:12:16;9.30;99.90
25328;DHT22;13279;51.300;12.394;2023-11-18T13:14:46;9.10;99.90
25328;DHT22;13279;51.300;12.394;2023-11-18T13:17:15;9.00;99.90
25328;DHT22;13279;51.300;12.394;2023-11-18T13:19:43;8.90;99.90
25328;DHT22;13279;51.300;12.394;2023-11-18T13:22:15;8.90;99.90
25328;DHT22;13279;51.300;12.394;2023-11-18T13:24:45;8.80;99.90
25328;DHT22;13279;51.300;12.394;2023-11-18T13:27:18;8.80;99.90
25328;DHT22;13279;51.300;12.394;2023-11-18T13:29:49;8.70;99.90
25328;DHT22;13279;51.300;12.394;2023-11-18T13:32:19;8.60;1.00
25328;DHT22;13279;51.300;12.394;2023-11-18T13:34:49;8.60;99.90
25328;DHT22;13279;51.300;12.394;2023-11-18T13:37:19;8.50;99.90
25328;DHT22;13279;51.300;12.394;2023-11-18T13:39:53;8.50;99.90
25328;DHT22;13279;51.300;12.394;2023-11-18T13:42:22;8.40;99.90
25328;DHT22;13279;51.300;12.394;2023-11-18T13:44:50;8.40;1.00
25328;DHT22;13279;51.300;12.394;2023-11-18T13:47:19;8.40;1.00
25328;DHT22;13279;51.300;12.394;2023-11-18T13:49:49;8.40;1.00
25328;DHT22;13279;51.300;12.394;2023-11-18T13:52:20;8.30;1.00
25328;DHT22;13279;51.300;12.394;2023-11-18T13:54:48;8.20;1.00
25328;DHT22;13279;51.300;12.394;2023-11-18T13:57:21;8.20;1.00
25328;DHT22;13279;51.300;12.394;2023-11-18T13:59:49;8.20;1.00
25328;DHT22;13279;51.300;12.394;2023-11-18T14:02:17;8.20;1.00
25328;DHT22;13279;51.300;12.394;2023-11-18T14:04:45;8.20;1.00
25328;DHT22;13279;51.300;12.394;2023-11-18T14:07:15;8.20;1.00
25328;DHT22;13279;51.300;12.394;2023-11-18T14:09:45;8.20;1.00
25328;DHT22;13279;51.300;12.394;2023-11-18T14:12:13;8.10;1.00
25328;DHT22;13279;51.300;12.394;2023-11-18T14:14:41;8.10;1.00
25328;DHT22;13279;51.300;12.394;2023-11-18T14:17:08;8.00;1.00
25328;DHT22;13279;51.300;12.394;2023-11-18T14:19:36;8.00;1.00
25328;DHT22;13279;51.300;12.394;2023-11-18T14:22:04;7.90;1.00
25328;DHT22;13279;51.300;12.394;2023-11-18T14:24:33;7.90;1.00
25328;DHT22;13279;51.300;12.394;2023-11-18T14:27:02;7.80;1.00
25328;DHT22;13279;51.300;12.394;2023-11-18T14:29:30;7.80;1.00
25328;DHT22;13279;51.300;12.394;2023-11-18T14:31:58;7.80;1.00
25328;DHT22;13279;51.300;12.394;2023-11-18T14:34:25;7.80;1.00
25328;DHT22;13279;51.300;12.394;2023-11-18T14:36:53;7.80;1.00
25328;DHT22;13279;51.300;12.394;2023-11-18T14:39:20;7.70;1.00
25328;DHT22;13279;51.300;12.394;2023-11-18T14:41:48;7.60;1.00
25328;DHT22;13279;51.300;12.394;2023-11-18T14:44:18;7.60;1.00
25328;DHT22;13279;51.300;12.394;2023-11-18T14:46:46;7.60;1.00
25328;DHT22;13279;51.300;12.394;2023-11-18T14:49:14;7.50;1.00
25328;DHT22;13279;51.300;12.394;2023-11-18T14:51:41;7.40;1.00
25328;DHT22;13279;51.300;12.394;2023-11-18T14:54:09;7.40;1.00
25328;DHT22;13279;51.300;12.394;2023-11-18T14:56:37;7.30;1.00
25328;DHT22;13279;51.300;12.394;2023-11-18T14:59:05;7.30;1.00
25328;DHT22;13279;51.300;12.394;2023-11-18T15:01:35;7.20;1.00
25328;DHT22;13279;51.300;12.394;2023-11-18T15:04:03;7.10;1.00
25328;DHT22;13279;51.300;12.394;2023-11-18T15:06:33;7.10;1.00
25328;DHT22;13279;51.300;12.394;2023-11-18T15:09:01;7.10;1.00
25328;DHT22;13279;51.300;12.394;2023-11-18T15:11:29;7.00;1.00
25328;DHT22;13279;51.300;12.394;2023-11-18T15:14:00;6.90;1.00
25328;DHT22;13279;51.300;12.394;2023-11-18T15:16:29;6.90;1.00
25328;DHT22;13279;51.300;12.394;2023-11-18T15:18:58;6.80;24.40
25328;DHT22;13279;51.300;12.394;2023-11-18T15:21:26;6.80;24.50
25328;DHT22;13279;51.300;12.394;2023-11-18T15:23:55;6.70;25.10
25328;DHT22;13279;51.300;12.394;2023-11-18T15:26:27;6.70;27.80
25328;DHT22;13279;51.300;12.394;2023-11-18T15:28:56;6.70;44.50
25328;DHT22;13279;51.300;12.394;2023-11-18T15:31:25;6.60;27.80
25328;DHT22;13279;51.300;12.394;2023-11-18T15:33:55;6.60;34.00
25328;DHT22;13279;51.300;12.394;2023-11-18T15:36:25;6.60;34.20
25328;DHT22;13279;51.300;12.394;2023-11-18T15:38:53;6.60;34.70
25328;DHT22;13279;51.300;12.394;2023-11-18T15:41:20;6.60;45.70
25328;DHT22;13279;51.300;12.394;2023-11-18T15:43:48;6.50;56.00
25328;DHT22;13279;51.300;12.394;2023-11-18T15:46:15;6.50;72.50
25328;DHT22;13279;51.300;12.394;2023-11-18T15:48:43;6.40;88.80
25328;DHT22;13279;51.300;12.394;2023-11-18T15:51:11;6.40;82.10
25328;DHT22;13279;51.300;12.394;2023-11-18T15:53:43;6.40;98.00
25328;DHT22;13279;51.300;12.394;2023-11-18T15:56:11;6.40;98.00